createdAt,value
2017-07-16T00:02:13.009Z,16.07
2017-07-16T00:04:41.372Z,15.37
2017-07-16T00:07:09.727Z,14.10
2017-07-16T00:09:38.076Z,13.43
2017-07-16T00:12:06.445Z,15.40
2017-07-16T00:14:34.795Z,17.33
2017-07-16T00:17:03.155Z,15.50
2017-07-16T00:19:31.816Z,21.10
2017-07-16T00:22:00.569Z,17.77
2017-07-16T00:24:28.911Z,16.10
2017-07-16T00:26:57.419Z,15.47
2017-07-16T00:29:25.772Z,16.90
2017-07-16T00:31:54.120Z,16.73
2017-07-16T00:34:22.872Z,16.67
2017-07-16T00:36:51.218Z,16.20
2017-07-16T00:39:19.575Z,18.13
2017-07-16T00:41:48.320Z,16.90
2017-07-16T00:44:16.676Z,17.17
2017-07-16T00:46:45.023Z,17.50
2017-07-16T00:49:13.782Z,16.57
2017-07-16T00:51:42.151Z,19.33
2017-07-16T00:54:10.618Z,15.87
2017-07-16T00:56:38.971Z,17.90
2017-07-16T00:59:07.315Z,18.67
2017-07-16T01:01:35.667Z,17.40
2017-07-16T01:04:04.031Z,24.13
2017-07-16T01:06:32.392Z,18.37
2017-07-16T01:09:00.742Z,17.30
2017-07-16T01:11:29.491Z,17.27
2017-07-16T01:13:57.841Z,17.13
2017-07-16T01:16:26.198Z,16.57
2017-07-16T01:18:55.027Z,17.60
2017-07-16T01:21:23.415Z,19.47
2017-07-16T01:23:51.760Z,18.07
2017-07-16T01:26:20.472Z,17.43
2017-07-16T01:28:48.826Z,19.13
2017-07-16T01:31:17.179Z,18.87
2017-07-16T01:33:45.535Z,24.73
2017-07-16T01:36:14.115Z,24.77
2017-07-16T01:38:42.470Z,20.33
2017-07-16T01:41:10.815Z,20.50
2017-07-16T01:43:39.568Z,20.03
2017-07-16T01:46:08.175Z,19.93
2017-07-16T01:48:36.933Z,19.30
2017-07-16T01:51:05.284Z,23.00
2017-07-16T01:53:33.771Z,18.30
2017-07-16T01:56:02.114Z,20.47
2017-07-16T01:58:31.051Z,18.77
2017-07-16T02:00:59.399Z,20.70
2017-07-16T02:03:27.754Z,22.20
2017-07-16T02:05:56.507Z,19.97
2017-07-16T02:08:26.455Z,20.40
2017-07-16T02:10:55.209Z,19.90
2017-07-16T02:13:23.559Z,19.77
2017-07-16T02:15:51.912Z,21.80
2017-07-16T02:18:20.665Z,21.13
2017-07-16T02:20:49.128Z,27.53
2017-07-16T02:23:17.474Z,23.07
2017-07-16T02:25:45.836Z,27.20
2017-07-16T02:28:14.579Z,22.33
2017-07-16T02:30:43.055Z,23.17
2017-07-16T02:33:11.402Z,40.27
2017-07-16T02:35:39.758Z,23.57
2017-07-16T02:38:08.510Z,24.37
2017-07-16T02:40:37.274Z,24.90
2017-07-16T02:43:05.635Z,39.40
2017-07-16T02:45:33.990Z,28.57
2017-07-16T02:48:02.747Z,27.50
2017-07-16T02:50:31.116Z,31.27
2017-07-16T02:52:59.479Z,23.63
2017-07-16T02:55:27.823Z,26.27
2017-07-16T02:57:56.572Z,30.73
2017-07-16T03:00:24.919Z,27.33
2017-07-16T03:02:53.419Z,27.67
2017-07-16T03:05:21.767Z,25.17
2017-07-16T03:07:50.111Z,27.67
2017-07-16T03:10:18.466Z,28.80
2017-07-16T03:12:46.822Z,25.07
2017-07-16T03:15:15.174Z,34.53
2017-07-16T03:17:43.915Z,27.00
2017-07-16T03:20:12.271Z,29.90
2017-07-16T03:22:40.618Z,30.60
2017-07-16T03:25:27.120Z,22.53
2017-07-16T03:27:55.860Z,25.50
2017-07-16T03:30:24.239Z,31.80
2017-07-16T03:32:52.588Z,22.60
2017-07-16T03:35:21.191Z,23.53
2017-07-16T03:37:49.550Z,40.93
2017-07-16T03:40:18.223Z,29.93
2017-07-16T03:42:46.963Z,22.97
2017-07-16T03:45:15.315Z,23.10
2017-07-16T03:47:43.671Z,30.20
2017-07-16T03:50:12.418Z,23.67
2017-07-16T03:52:40.772Z,22.10
2017-07-16T03:55:09.119Z,28.97
2017-07-16T03:57:37.478Z,21.17
2017-07-16T04:00:05.822Z,19.47
2017-07-16T04:02:34.179Z,25.27
2017-07-16T04:05:02.522Z,22.70
2017-07-16T04:07:31.275Z,19.37
2017-07-16T04:09:59.620Z,18.03
2017-07-16T04:12:28.107Z,20.20
2017-07-16T04:14:56.450Z,13.00
2017-07-16T04:17:25.287Z,11.17
2017-07-16T04:19:53.645Z,10.57
2017-07-16T04:22:21.990Z,11.67
2017-07-16T04:24:50.351Z,9.17
2017-07-16T04:27:18.688Z,14.13
2017-07-16T04:29:47.079Z,7.30
2017-07-16T04:32:15.477Z,6.87
2017-07-16T04:34:44.108Z,13.73
2017-07-16T04:37:12.460Z,8.43
2017-07-16T04:39:40.810Z,6.20
2017-07-16T04:42:09.147Z,6.13
2017-07-16T04:44:38.214Z,5.27
2017-07-16T04:47:06.575Z,13.57
2017-07-16T04:49:34.919Z,6.37
2017-07-16T04:52:03.267Z,6.07
2017-07-16T04:54:32.011Z,5.23
2017-07-16T04:57:00.358Z,5.70
2017-07-16T04:59:28.712Z,7.20
2017-07-16T05:01:57.158Z,5.37
2017-07-16T05:04:25.499Z,5.07
2017-07-16T05:06:53.860Z,3.80
2017-07-16T05:09:22.197Z,6.80
2017-07-16T05:11:50.543Z,4.10
2017-07-16T05:14:18.881Z,4.40
2017-07-16T05:16:47.226Z,4.63
2017-07-16T05:19:15.588Z,4.60
2017-07-16T05:21:43.927Z,5.17
2017-07-16T05:24:12.270Z,3.80
2017-07-16T05:26:40.607Z,9.03
2017-07-16T05:29:08.972Z,3.73
2017-07-16T05:31:37.720Z,6.03
2017-07-16T05:34:06.081Z,2.67
2017-07-16T05:36:34.431Z,5.97
2017-07-16T05:39:02.789Z,3.40
2017-07-16T05:41:31.560Z,4.40
2017-07-16T05:43:59.916Z,3.23
2017-07-16T05:46:28.254Z,3.20
2017-07-16T05:48:56.684Z,3.50
2017-07-16T05:51:25.033Z,4.23
2017-07-16T05:53:53.951Z,2.90
2017-07-16T05:56:22.315Z,2.47
2017-07-16T05:58:50.685Z,2.57
2017-07-16T06:01:19.035Z,2.80
2017-07-16T06:03:47.773Z,3.83
2017-07-16T06:06:16.124Z,4.77
2017-07-16T06:08:44.472Z,3.30
2017-07-16T06:11:13.215Z,2.10
2017-07-16T06:13:41.563Z,3.77
2017-07-16T06:16:10.067Z,2.40
2017-07-16T06:18:38.411Z,3.47
2017-07-16T06:21:07.147Z,2.90
2017-07-16T06:23:35.496Z,4.20
2017-07-16T06:26:03.834Z,4.20
2017-07-16T06:28:32.179Z,7.73
2017-07-16T06:31:00.533Z,4.00
2017-07-16T06:33:28.891Z,6.57
2017-07-16T06:35:57.244Z,13.53
2017-07-16T06:38:25.795Z,3.70
2017-07-16T06:40:54.429Z,4.20
2017-07-16T06:43:22.778Z,3.10
2017-07-16T06:45:51.136Z,4.07
2017-07-16T06:48:19.484Z,3.67
2017-07-16T06:50:47.845Z,4.00
2017-07-16T06:53:16.593Z,8.50
2017-07-16T06:55:44.961Z,3.20
2017-07-16T06:58:13.299Z,5.73
2017-07-16T07:00:41.949Z,4.30
2017-07-16T07:03:10.679Z,6.07
2017-07-16T07:05:39.110Z,6.43
2017-07-16T07:08:07.477Z,5.90
2017-07-16T07:10:35.840Z,3.50
2017-07-16T07:13:04.198Z,3.20
2017-07-16T07:15:32.940Z,2.80
2017-07-16T07:18:01.294Z,3.23
2017-07-16T07:20:29.649Z,2.83
2017-07-16T07:22:58.007Z,4.40
2017-07-16T07:25:26.747Z,3.10
2017-07-16T07:27:55.240Z,3.17
2017-07-16T07:30:23.596Z,2.33
2017-07-16T07:32:51.948Z,4.80
2017-07-16T07:35:20.774Z,2.27
2017-07-16T07:37:49.120Z,2.50
2017-07-16T07:40:17.487Z,5.70
2017-07-16T07:42:46.249Z,2.73
2017-07-16T07:45:14.603Z,4.03
2017-07-16T07:47:42.962Z,2.90
2017-07-16T07:50:11.310Z,2.03
2017-07-16T07:52:40.046Z,4.13
2017-07-16T07:55:08.620Z,2.50
2017-07-16T07:57:36.963Z,2.90
2017-07-16T08:00:05.703Z,2.07
2017-07-16T08:02:34.062Z,1.57
2017-07-16T08:05:02.417Z,2.80
2017-07-16T08:07:31.173Z,1.90
2017-07-16T08:09:59.512Z,1.57
2017-07-16T08:12:27.872Z,1.97
2017-07-16T08:14:56.210Z,2.03
2017-07-16T08:17:24.573Z,1.70
2017-07-16T08:19:52.921Z,3.63
2017-07-16T08:22:21.270Z,3.43
2017-07-16T08:24:50.023Z,2.60
2017-07-16T08:27:18.359Z,2.43
2017-07-16T08:29:46.712Z,3.73
2017-07-16T08:32:15.452Z,1.27
2017-07-16T08:34:43.820Z,1.63
2017-07-16T08:37:12.160Z,2.50
2017-07-16T08:39:41.103Z,1.73
2017-07-16T08:42:09.457Z,3.57
2017-07-16T08:44:37.813Z,5.33
2017-07-16T08:47:06.574Z,7.80
2017-07-16T08:49:34.916Z,1.73
2017-07-16T08:52:03.276Z,1.83
2017-07-16T08:54:31.709Z,4.30
2017-07-16T08:57:00.067Z,1.63
2017-07-16T08:59:28.416Z,1.80
2017-07-16T09:01:56.942Z,1.37
2017-07-16T09:04:25.297Z,1.90
2017-07-16T09:06:53.649Z,3.70
2017-07-16T09:09:22.405Z,1.90
2017-07-16T09:11:50.751Z,2.07
2017-07-16T09:14:19.111Z,2.23
2017-07-16T09:16:47.452Z,3.53
2017-07-16T09:19:15.805Z,4.27
2017-07-16T09:21:44.171Z,4.30
2017-07-16T09:24:12.591Z,1.40
2017-07-16T09:26:40.943Z,2.00
2017-07-16T09:29:09.321Z,6.07
2017-07-16T09:31:37.677Z,2.50
2017-07-16T09:34:06.027Z,8.70
2017-07-16T09:36:34.385Z,1.90
2017-07-16T09:39:02.806Z,2.70
2017-07-16T09:41:31.461Z,8.50
2017-07-16T09:44:00.207Z,4.90
2017-07-16T09:46:28.899Z,2.30
2017-07-16T09:48:57.254Z,1.40
2017-07-16T09:51:25.606Z,4.17
2017-07-16T09:53:53.977Z,2.37
2017-07-16T09:56:22.335Z,2.20
2017-07-16T09:58:50.684Z,2.73
2017-07-16T10:01:19.181Z,2.37
2017-07-16T10:03:47.537Z,3.10
2017-07-16T10:06:15.899Z,10.83
2017-07-16T10:08:44.251Z,2.40
2017-07-16T10:11:13.013Z,2.20
2017-07-16T10:13:41.377Z,2.10
2017-07-16T10:16:09.722Z,2.30
2017-07-16T10:18:38.067Z,6.43
2017-07-16T10:21:06.422Z,4.97
2017-07-16T10:23:34.788Z,4.17
2017-07-16T10:26:03.136Z,3.87
2017-07-16T10:28:31.662Z,6.70
2017-07-16T10:31:00.052Z,3.93
2017-07-16T10:33:28.402Z,2.77
2017-07-16T10:35:56.765Z,2.40
2017-07-16T10:38:25.425Z,5.30
2017-07-16T10:40:54.181Z,2.10
2017-07-16T10:43:22.534Z,2.73
2017-07-16T10:45:50.896Z,2.00
2017-07-16T10:48:19.255Z,2.33
2017-07-16T10:50:47.627Z,2.07
2017-07-16T10:53:16.387Z,8.70
2017-07-16T10:55:44.742Z,5.97
2017-07-16T10:58:13.101Z,2.10
2017-07-16T11:00:41.716Z,6.53
2017-07-16T11:03:10.461Z,9.30
2017-07-16T11:05:38.821Z,2.33
2017-07-16T11:08:07.189Z,2.80
2017-07-16T11:10:35.539Z,4.50
2017-07-16T11:13:03.897Z,1.83
2017-07-16T11:15:32.261Z,4.03
2017-07-16T11:18:00.613Z,2.43
2017-07-16T11:20:28.973Z,1.83
2017-07-16T11:22:57.334Z,5.47
2017-07-16T11:25:25.672Z,4.60
2017-07-16T11:27:54.401Z,1.20
2017-07-16T11:30:22.858Z,4.00
2017-07-16T11:32:51.208Z,2.90
2017-07-16T11:35:19.568Z,2.80
2017-07-16T11:37:47.907Z,1.70
2017-07-16T11:40:16.291Z,1.77
2017-07-16T11:42:44.676Z,3.27
2017-07-16T11:45:13.037Z,1.77
2017-07-16T11:47:41.384Z,3.00
2017-07-16T11:50:10.141Z,2.90
2017-07-16T11:52:38.507Z,4.70
2017-07-16T11:55:06.869Z,2.10
2017-07-16T11:57:35.215Z,3.67
2017-07-16T12:00:03.977Z,3.03
2017-07-16T12:02:32.347Z,1.63
2017-07-16T12:05:01.020Z,2.47
2017-07-16T12:07:29.362Z,1.77
2017-07-16T12:09:57.704Z,3.63
2017-07-16T12:12:26.167Z,2.00
2017-07-16T12:14:54.521Z,2.73
2017-07-16T12:17:22.890Z,7.33
2017-07-16T12:19:51.235Z,4.83
2017-07-16T12:22:20.009Z,5.50
2017-07-16T12:24:48.382Z,2.97
2017-07-16T12:27:16.779Z,1.70
2017-07-16T12:29:45.943Z,3.67
2017-07-16T12:32:14.452Z,3.53
2017-07-16T12:34:43.687Z,3.20
2017-07-16T12:37:12.293Z,2.20
2017-07-16T12:39:40.731Z,3.77
2017-07-16T12:42:09.919Z,6.97
2017-07-16T12:44:38.309Z,11.50
2017-07-16T12:47:06.685Z,2.00
2017-07-16T12:49:35.128Z,1.80
2017-07-16T12:52:03.474Z,3.70
2017-07-16T12:54:31.849Z,4.03
2017-07-16T12:57:00.195Z,2.53
2017-07-16T12:59:28.757Z,2.00
2017-07-16T13:01:57.105Z,4.03
2017-07-16T13:04:25.876Z,2.30
2017-07-16T13:06:54.245Z,11.03
2017-07-16T13:09:22.995Z,3.47
2017-07-16T13:11:51.355Z,2.60
2017-07-16T13:14:19.708Z,1.60
2017-07-16T13:16:48.073Z,1.77
2017-07-16T13:19:16.819Z,2.53
2017-07-16T13:21:46.169Z,5.53
2017-07-16T13:24:14.661Z,2.00
2017-07-16T13:26:43.069Z,5.93
2017-07-16T13:29:11.447Z,6.17
2017-07-16T13:31:40.089Z,1.73
2017-07-16T13:34:08.848Z,2.70
2017-07-16T13:36:37.408Z,1.83
2017-07-16T13:39:05.769Z,2.50
2017-07-16T13:41:34.180Z,5.53
2017-07-16T13:44:02.536Z,4.00
2017-07-16T13:46:30.885Z,3.67
2017-07-16T13:48:59.667Z,1.47
2017-07-16T13:51:28.015Z,4.07
2017-07-16T13:53:56.372Z,4.50
2017-07-16T13:56:24.729Z,2.80
2017-07-16T13:58:53.097Z,1.43
2017-07-16T14:01:21.461Z,8.40
2017-07-16T14:03:50.225Z,3.90
2017-07-16T14:06:18.589Z,6.27
2017-07-16T14:08:46.945Z,3.13
2017-07-16T14:11:15.295Z,1.40
2017-07-16T14:13:44.428Z,2.83
2017-07-16T14:16:12.777Z,1.73
2017-07-16T14:18:41.533Z,8.50
2017-07-16T14:21:09.896Z,3.90
2017-07-16T14:23:38.275Z,3.93
2017-07-16T14:26:06.652Z,2.80
2017-07-16T14:28:34.995Z,1.63
2017-07-16T14:31:03.356Z,6.83
2017-07-16T14:33:32.105Z,2.60
2017-07-16T14:36:00.483Z,4.47
2017-07-16T14:38:28.836Z,3.00
2017-07-16T14:40:57.408Z,2.03
2017-07-16T14:43:25.778Z,1.70
2017-07-16T14:45:54.122Z,8.30
2017-07-16T14:48:22.486Z,2.97
2017-07-16T14:50:50.828Z,5.03
2017-07-16T14:53:19.193Z,10.83
2017-07-16T14:55:47.553Z,1.37
2017-07-16T14:58:16.323Z,4.07
2017-07-16T15:00:44.684Z,2.80
2017-07-16T15:03:13.259Z,1.50
2017-07-16T15:05:41.622Z,8.00
2017-07-16T15:08:09.971Z,5.57
2017-07-16T15:10:38.316Z,6.43
2017-07-16T15:13:06.994Z,5.43
2017-07-16T15:15:35.339Z,5.73
2017-07-16T15:18:03.691Z,6.93
2017-07-16T15:20:32.454Z,3.23
2017-07-16T15:23:00.817Z,2.07
2017-07-16T15:25:29.182Z,1.80
2017-07-16T15:27:57.819Z,1.80
2017-07-16T15:30:26.585Z,1.97
2017-07-16T15:32:54.921Z,7.73
2017-07-16T15:35:23.277Z,6.30
2017-07-16T15:37:52.026Z,5.30
2017-07-16T15:40:20.598Z,2.23
2017-07-16T15:42:48.947Z,4.70
2017-07-16T15:45:17.302Z,5.53
2017-07-16T15:47:46.057Z,2.17
2017-07-16T15:50:14.421Z,2.23
2017-07-16T15:52:42.777Z,2.50
2017-07-16T15:55:11.129Z,6.03
2017-07-16T15:57:40.077Z,3.67
2017-07-16T16:00:08.424Z,4.10
2017-07-16T16:02:36.767Z,8.97
2017-07-16T16:05:05.141Z,5.17
2017-07-16T16:07:33.492Z,5.47
2017-07-16T16:10:01.867Z,6.10
2017-07-16T16:12:30.216Z,5.17
2017-07-16T16:14:58.567Z,4.00
2017-07-16T16:17:27.343Z,4.60
2017-07-16T16:19:55.860Z,10.60
2017-07-16T16:22:24.199Z,2.77
2017-07-16T16:24:52.557Z,2.60
2017-07-16T16:27:20.934Z,2.60
2017-07-16T16:29:49.304Z,2.90
2017-07-16T16:32:17.656Z,2.97
2017-07-16T16:34:46.007Z,3.77
2017-07-16T16:37:14.561Z,3.73
2017-07-16T16:39:42.898Z,8.03
2017-07-16T16:42:11.249Z,3.83
2017-07-16T16:44:39.621Z,5.50
2017-07-16T16:47:07.969Z,7.23
2017-07-16T16:49:36.325Z,5.27
2017-07-16T16:52:04.673Z,4.73
2017-07-16T16:54:33.425Z,3.50
2017-07-16T16:57:01.784Z,3.93
2017-07-16T16:59:30.298Z,4.10
2017-07-16T17:01:58.642Z,5.97
2017-07-16T17:04:27.011Z,3.90
2017-07-16T17:06:55.363Z,3.97
2017-07-16T17:09:24.117Z,4.23
2017-07-16T17:11:52.485Z,8.57
2017-07-16T17:14:20.837Z,6.57
2017-07-16T17:16:49.201Z,3.73
2017-07-16T17:19:18.177Z,4.90
2017-07-16T17:21:46.927Z,6.20
2017-07-16T17:24:15.276Z,4.10
2017-07-16T17:26:43.639Z,4.80
2017-07-16T17:29:12.388Z,5.07
2017-07-16T17:31:40.731Z,14.33
2017-07-16T17:34:09.106Z,19.87
2017-07-16T17:36:37.483Z,9.93
2017-07-16T17:39:06.103Z,5.77
2017-07-16T17:41:34.448Z,6.70
2017-07-16T17:44:02.813Z,10.90
2017-07-16T17:46:31.571Z,13.30
2017-07-16T17:49:00.170Z,10.47
2017-07-16T17:51:28.917Z,7.13
2017-07-16T17:53:57.274Z,6.97
2017-07-16T17:56:25.887Z,13.60
2017-07-16T17:58:54.240Z,5.47
2017-07-16T18:01:22.597Z,10.20
2017-07-16T18:03:50.960Z,12.83
2017-07-16T18:06:19.714Z,5.83
2017-07-16T18:08:48.068Z,19.43
2017-07-16T18:11:16.416Z,6.87
2017-07-16T18:13:44.835Z,5.83
2017-07-16T18:16:13.193Z,7.33
2017-07-16T18:18:41.665Z,6.57
2017-07-16T18:21:10.089Z,6.43
2017-07-16T18:23:38.663Z,9.13
2017-07-16T18:26:07.026Z,7.13
2017-07-16T18:28:35.384Z,5.53
2017-07-16T18:31:04.144Z,9.23
2017-07-16T18:33:32.498Z,5.20
2017-07-16T18:48:05.530Z,5.27
2017-07-16T18:50:34.854Z,4.80
2017-07-16T18:53:04.560Z,5.20
2017-07-16T18:55:34.724Z,5.23
2017-07-16T18:58:04.754Z,6.10
2017-07-16T19:03:35.493Z,8.10
2017-07-16T19:06:04.148Z,7.30
2017-07-16T19:08:34.083Z,6.60
2017-07-16T19:11:02.488Z,8.07
2017-07-16T19:13:30.838Z,10.20
2017-07-16T19:15:59.207Z,9.27
2017-07-16T19:18:27.603Z,11.13
2017-07-16T19:20:55.972Z,6.73
2017-07-16T19:23:24.387Z,4.83
2017-07-16T19:25:52.731Z,5.20
2017-07-16T19:28:21.505Z,15.23
2017-07-16T19:30:50.440Z,7.13
2017-07-16T19:33:19.611Z,6.70
2017-07-16T19:35:48.353Z,7.60
2017-07-16T19:38:17.181Z,5.50
2017-07-16T19:40:45.572Z,4.90
2017-07-16T19:43:13.938Z,12.50
2017-07-16T19:45:42.289Z,9.10
2017-07-16T19:48:11.789Z,4.70
2017-07-16T19:50:40.175Z,5.60
2017-07-16T19:53:08.523Z,7.20
2017-07-16T19:55:36.898Z,5.47
2017-07-16T19:58:05.251Z,4.07
2017-07-16T20:00:33.603Z,5.63
2017-07-16T20:03:01.943Z,4.50
2017-07-16T20:05:30.306Z,6.67
2017-07-16T20:07:58.647Z,4.83
2017-07-16T20:10:27.358Z,4.50
2017-07-16T20:12:55.808Z,5.63
2017-07-16T20:15:24.191Z,5.63
2017-07-16T20:17:52.563Z,5.57
2017-07-16T20:20:20.919Z,5.50
2017-07-16T20:22:49.280Z,4.40
2017-07-16T20:25:17.618Z,5.87
2017-07-16T20:27:45.982Z,5.10
2017-07-16T20:30:14.329Z,5.40
2017-07-16T20:32:42.681Z,9.07
2017-07-16T20:35:11.035Z,6.87
2017-07-16T20:37:39.645Z,7.37
2017-07-16T20:40:08.124Z,5.53
2017-07-16T20:42:36.499Z,5.17
2017-07-16T20:45:04.856Z,13.63
2017-07-16T20:47:33.199Z,5.43
2017-07-16T20:50:01.961Z,7.43
2017-07-16T20:52:30.565Z,5.67
2017-07-16T20:54:58.922Z,5.90
2017-07-16T20:57:27.541Z,6.13
2017-07-16T20:59:56.304Z,6.73
2017-07-16T21:02:24.665Z,6.00
2017-07-16T21:04:53.172Z,5.60
2017-07-16T21:07:21.526Z,9.33
2017-07-16T21:09:49.881Z,5.97
2017-07-16T21:12:18.297Z,8.63
2017-07-16T21:14:46.642Z,6.37
2017-07-16T21:17:15.157Z,6.00
2017-07-16T21:19:43.521Z,5.37
2017-07-16T21:22:11.866Z,6.07
2017-07-16T21:24:40.220Z,6.00
2017-07-16T21:27:08.581Z,6.73
2017-07-16T21:29:37.252Z,8.10
2017-07-16T21:32:05.595Z,7.13
2017-07-16T21:34:33.940Z,6.63
2017-07-16T21:37:02.292Z,5.83
2017-07-16T21:39:30.649Z,5.90
2017-07-16T21:41:59.380Z,7.00
2017-07-16T21:44:27.734Z,9.27
2017-07-16T21:46:56.090Z,9.17
2017-07-16T21:49:24.449Z,14.90
2017-07-16T21:51:52.809Z,7.13
2017-07-16T21:54:21.571Z,15.10
2017-07-16T21:56:49.907Z,7.00
2017-07-16T21:59:18.264Z,6.67
2017-07-16T22:01:47.012Z,6.53
2017-07-16T22:04:15.372Z,7.77
2017-07-16T22:06:43.730Z,8.40
2017-07-16T22:09:12.457Z,15.73
2017-07-16T22:11:40.800Z,8.90
2017-07-16T22:14:09.147Z,15.53
2017-07-16T22:16:37.499Z,15.30
2017-07-16T22:19:05.861Z,19.40
2017-07-16T22:21:34.407Z,23.77
2017-07-16T22:24:03.151Z,23.47
2017-07-16T22:26:31.499Z,22.73
2017-07-16T22:28:59.864Z,28.30
2017-07-16T22:31:28.219Z,22.10
2017-07-16T22:33:56.977Z,23.60
2017-07-16T22:36:25.352Z,22.57
2017-07-16T22:38:53.717Z,27.00
2017-07-16T22:41:22.066Z,37.63
2017-07-16T22:43:50.435Z,34.40
2017-07-16T22:46:19.190Z,54.17
2017-07-16T22:48:47.756Z,33.73
2017-07-16T22:51:16.387Z,24.13
2017-07-16T22:53:45.132Z,30.43
2017-07-16T22:56:13.494Z,31.33
2017-07-16T22:58:41.869Z,26.77
2017-07-16T23:01:10.477Z,31.53
2017-07-16T23:03:38.835Z,29.97
2017-07-16T23:06:07.192Z,26.20
2017-07-16T23:08:35.551Z,19.53
2017-07-16T23:11:03.912Z,23.33
2017-07-16T23:13:32.277Z,38.57
2017-07-16T23:16:00.636Z,29.67
2017-07-16T23:18:29.013Z,32.80
2017-07-16T23:20:57.415Z,40.63
2017-07-16T23:23:25.785Z,35.03
2017-07-16T23:25:54.130Z,43.30
2017-07-16T23:28:22.480Z,33.43
2017-07-16T23:30:50.864Z,77.77
2017-07-16T23:33:19.675Z,57.13
2017-07-16T23:35:48.032Z,49.57
2017-07-16T23:38:16.382Z,60.60
2017-07-16T23:40:44.751Z,80.43
2017-07-16T23:43:13.115Z,53.10
2017-07-16T23:45:41.466Z,82.47
2017-07-16T23:48:10.220Z,49.83
2017-07-16T23:50:38.726Z,59.07
2017-07-16T23:53:07.485Z,51.50
2017-07-16T23:55:35.852Z,59.40
2017-07-16T23:58:04.216Z,58.23
